Hauptseite
METAR-TAF:

METAR-TAF

Flughäfen :

Fliegerhorst Wittmundhafen

Wittmund, Deutschland

Breite: 53-33N, Länge: 007-40E, Höhe: 8 m

Beobachtung

Neuester Wetterbericht von vor 1 Stunde und 1 Minuten, um 18:20 UTC
Wind 9 kt aus Südwest
Temperatur 20°C
Luftfeuchtigkeit 60%
Luftdruck 1014 hPa
Sichtweite 10 km oder mehr
Leicht bewölkt in der Höhe von 4000 ft
Durchbrochene Bewölkung in der Höhe von 28000 ft

METAR: ETNT 191820Z 22009KT 9999 FEW040 BKN280 20/12 Q1014 BLU+

Zeit: 21:21 (19:21 UTC)

Prognose

Neuester Wetterbericht von vor 3 Stunden und 21 Minuten, um 16:00 UTC
Gültige Prognose vom 19 um 17 UTC bis 20 um 02 UTC
Wind 15 kt aus Südwest, Böen bis zu 25 kt
Sichtweite 10 km oder mehr
Leicht bewölkt in der Höhe von 4000 ft
Aufgelockert bewölkt in der Höhe von 22000 ft

TAF: ETNT 191600Z 1917/2002 23015G25KT 9999 NSW FEW040 SCT220 BY ETGL

Wetterbeobachtungen und Prognosen von mehr als 4000 Flughäfen (METAR und TAF Bericht).

Die verfügbaren Stationen werden durch gelbe und rote Markierungen auf der Karte dargestellt.

Führen Sie die Maus auf sie, um den Namen der Station zu sehen.

Darauf klicken, um die Beobachtung von Wetterbeobachtungen und Prognosen zu sehen.

Um die Karte zu ändern : klicken Sie auf den grünen Tasten mit einem schwarzen Kreuz Zum Vergrößern, auf den grünen Button mit einem Gedankenstrich zu verkleinern, oder auf die grünen Pfeile für benachbarte Karten.


METAR-TAF: